Time;durP1;ratioP1;P1;durP2;ratioP2;P2;SDS_P1;SDS_P2;PMS_P1;PMS_P2;Temp;Humidity;BMP_temperature;BMP_pressure;BME280_temperature;BME280_humidity;BME280_pressure;Samples;Min_cycle;Max_cycle;Signal;HPM_P1;HPM_P2
2023/05/23 00:00:36;;;;;;;10.55;4.90;;;;;;;19.79;56.21;98876.06;4331669;33;33300;-89
2023/05/23 00:03:04;;;;;;;7.37;4.72;;;;;;;19.68;56.20;98876.38;4331809;33;33928;-94
2023/05/23 00:05:33;;;;;;;10.15;4.82;;;;;;;19.52;56.76;98877.69;4319539;33;34870;-96
2023/05/23 00:08:01;;;;;;;8.60;4.65;;;;;;;19.45;57.02;98880.47;4331872;33;34156;-94
2023/05/23 00:10:29;;;;;;;6.10;4.05;;;;;;;19.39;57.27;98880.63;4331667;33;33514;-89
2023/05/23 00:12:57;;;;;;;7.97;4.62;;;;;;;19.63;56.70;98879.16;4331005;33;34645;-93
2023/05/23 00:15:24;;;;;;;8.32;4.53;;;;;;;19.60;56.68;98880.97;4327718;33;33888;-96
2023/05/23 00:17:52;;;;;;;6.78;4.70;;;;;;;19.44;57.11;98870.88;4332254;33;34939;-96
2023/05/23 00:20:20;;;;;;;10.88;4.60;;;;;;;19.49;56.99;98869.88;4331233;33;33488;-92
2023/05/23 00:22:48;;;;;;;7.65;4.53;;;;;;;19.53;56.68;98880.28;4316179;33;34491;-88
2023/05/23 00:25:16;;;;;;;8.23;4.70;;;;;;;19.35;57.09;98879.00;4316701;33;34134;-96
2023/05/23 00:27:44;;;;;;;10.20;5.37;;;;;;;19.48;56.75;98866.41;4316900;33;34489;-94
2023/05/23 00:30:12;;;;;;;9.40;5.43;;;;;;;19.30;57.18;98874.78;4316735;33;34313;-95
2023/05/23 00:32:40;;;;;;;7.97;4.80;;;;;;;19.52;56.83;98878.56;4303384;33;34097;-96
2023/05/23 00:35:10;;;;;;;10.35;5.50;;;;;;;19.55;56.50;98874.97;4319141;33;33949;-91
2023/05/23 00:37:37;;;;;;;7.80;4.72;;;;;;;19.58;56.22;98880.13;4316679;33;34811;-93
2023/05/23 00:40:07;;;;;;;10.60;4.78;;;;;;;19.33;56.77;98872.94;4309657;33;33684;-93
2023/05/23 00:42:34;;;;;;;8.23;4.72;;;;;;;19.48;56.63;98879.53;4302729;33;34664;-94
2023/05/23 00:45:02;;;;;;;8.88;6.22;;;;;;;19.58;56.39;98883.63;4316414;33;34053;-94
2023/05/23 00:47:30;;;;;;;9.35;5.07;;;;;;;19.50;56.57;98882.97;4317111;33;34623;-93
2023/05/23 00:49:58;;;;;;;8.13;5.00;;;;;;;19.22;57.10;98880.25;4316339;33;34065;-95
2023/05/23 00:52:27;;;;;;;9.60;5.30;;;;;;;19.23;57.09;98871.47;4303159;33;32339;-92
2023/05/23 00:54:54;;;;;;;8.90;5.12;;;;;;;19.34;56.92;98879.91;4291231;33;34274;-90
2023/05/23 00:57:27;;;;;;;8.98;4.75;;;;;;;19.44;56.78;98884.03;4290056;33;33887;-93
2023/05/23 00:59:54;;;;;;;7.82;4.93;;;;;;;19.24;57.27;98878.44;4302805;33;33310;-91
2023/05/23 01:02:22;;;;;;;9.35;5.70;;;;;;;19.08;57.78;98879.75;4302703;33;34737;-92
2023/05/23 01:04:53;;;;;;;8.52;4.68;;;;;;;19.05;57.88;98887.72;4291443;33;34226;-94
2023/05/23 01:07:21;;;;;;;8.65;4.35;;;;;;;19.02;58.28;98890.44;4304102;33;35021;-93
2023/05/23 01:09:49;;;;;;;9.73;4.60;;;;;;;18.89;59.17;98887.25;4316863;33;33419;-93
2023/05/23 01:12:26;;;;;;;8.82;5.40;;;;;;;18.85;59.79;98878.56;4303466;33;33500;-92
2023/05/23 01:14:57;;;;;;;10.25;4.70;;;;;;;18.83;60.03;98876.91;4303381;33;34921;-93
2023/05/23 01:17:40;;;;;;;8.07;4.62;;;;;;;19.09;58.66;98876.22;4303536;33;34064;-93
2023/05/23 01:20:11;;;;;;;8.75;4.78;;;;;;;19.11;58.31;98875.28;4316797;33;33303;-92
2023/05/23 01:23:10;;;;;;;9.07;4.72;;;;;;;19.09;57.85;98870.97;4320308;33;33175;-95
2023/05/23 01:26:10;;;;;;;8.32;4.45;;;;;;;19.30;57.57;98870.41;4321614;33;34588;-93
2023/05/23 01:28:46;;;;;;;9.98;5.30;;;;;;;19.12;57.84;98868.25;4319925;33;33075;-91
2023/05/23 01:31:15;;;;;;;8.80;5.18;;;;;;;19.16;57.80;98864.63;4321245;33;33461;-93
2023/05/23 01:33:44;;;;;;;9.68;6.40;;;;;;;19.21;57.94;98862.78;4315424;33;34845;-95
2023/05/23 01:36:13;;;;;;;10.43;6.40;;;;;;;19.20;57.71;98858.41;4323084;33;35122;-94
2023/05/23 01:38:41;;;;;;;11.75;6.62;;;;;;;19.29;57.86;98854.69;4316651;33;34087;-92
2023/05/23 01:41:09;;;;;;;12.02;7.32;;;;;;;19.22;57.84;98856.59;4315212;33;34292;-93
2023/05/23 01:43:37;;;;;;;12.00;6.97;;;;;;;19.32;57.51;98851.94;4327384;33;33388;-91
2023/05/23 01:46:06;;;;;;;8.48;6.07;;;;;;;19.21;57.76;98852.25;4327014;33;34876;-93
2023/05/23 01:48:35;;;;;;;11.70;7.22;;;;;;;19.05;58.38;98849.16;4303324;33;34704;-93
2023/05/23 01:51:03;;;;;;;17.70;6.80;;;;;;;19.13;58.55;98862.09;4315693;33;33457;-92
2023/05/23 01:53:32;;;;;;;9.18;7.22;;;;;;;19.01;59.10;98846.66;4315367;33;35438;-93
2023/05/23 01:56:02;;;;;;;11.82;7.28;;;;;;;18.93;59.34;98852.97;4303604;33;33611;-91
2023/05/23 01:58:29;;;;;;;16.73;7.28;;;;;;;19.08;59.31;98848.22;4316263;33;34949;-92
2023/05/23 02:00:57;;;;;;;10.88;6.57;;;;;;;19.04;59.53;98851.84;4314770;33;34480;-93
2023/05/23 02:03:25;;;;;;;13.35;6.28;;;;;;;19.02;59.53;98846.62;4308786;33;33498;-93
2023/05/23 02:05:53;;;;;;;13.55;6.75;;;;;;;19.03;59.56;98844.88;4289226;33;33470;-93
2023/05/23 02:08:20;;;;;;;9.93;6.10;;;;;;;19.00;59.43;98840.53;4312179;33;34262;-93
2023/05/23 02:10:48;;;;;;;9.50;5.50;;;;;;;18.87;59.63;98839.16;4316387;33;33632;-90
2023/05/23 02:13:16;;;;;;;7.85;5.25;;;;;;;18.92;59.39;98846.00;4316701;33;34629;-92
2023/05/23 02:15:43;;;;;;;9.43;5.28;;;;;;;19.03;58.64;98850.13;4314994;33;34106;-93
2023/05/23 02:18:12;;;;;;;9.30;5.45;;;;;;;18.72;59.44;98845.66;4317236;33;34975;-89
2023/05/23 02:20:41;;;;;;;8.90;5.50;;;;;;;18.63;59.65;98851.94;4303819;33;33582;-92
2023/05/23 02:23:09;;;;;;;8.27;4.95;;;;;;;18.62;59.76;98841.50;4303074;33;33793;-94
2023/05/23 02:25:37;;;;;;;9.63;5.03;;;;;;;18.48;59.88;98842.69;4326032;33;34649;-92
2023/05/23 02:28:06;;;;;;;8.25;5.07;;;;;;;18.46;59.91;98844.50;4329934;33;33898;-93
2023/05/23 02:30:33;;;;;;;7.62;5.03;;;;;;;18.48;59.70;98840.06;4329929;33;34531;-93
2023/05/23 02:33:04;;;;;;;11.30;5.60;;;;;;;18.42;59.78;98834.97;4305099;33;34025;-94
2023/05/23 02:35:32;;;;;;;9.45;5.28;;;;;;;18.36;60.09;98835.13;4317670;33;34144;-93
2023/05/23 02:38:00;;;;;;;7.35;5.32;;;;;;;18.40;59.87;98834.16;4330696;33;35001;-91
2023/05/23 02:40:27;;;;;;;9.35;5.20;;;;;;;18.47;59.48;98832.25;4330339;33;33559;-93
2023/05/23 02:42:56;;;;;;;8.73;5.40;;;;;;;18.52;59.37;98834.75;4330760;33;34709;-91
2023/05/23 02:45:23;;;;;;;9.45;5.47;;;;;;;18.36;59.95;98837.75;4330981;33;34253;-93
2023/05/23 02:47:51;;;;;;;11.12;5.15;;;;;;;18.52;59.81;98832.12;4317465;33;34791;-92
2023/05/23 02:50:19;;;;;;;7.95;4.95;;;;;;;18.40;59.66;98834.16;4330273;33;34490;-92
2023/05/23 02:52:46;;;;;;;9.52;5.57;;;;;;;18.50;59.35;98834.78;4317437;33;34318;-94
2023/05/23 02:55:14;;;;;;;9.63;5.30;;;;;;;18.56;59.03;98829.41;4330683;33;33971;-92
2023/05/23 02:57:42;;;;;;;7.28;5.10;;;;;;;18.49;59.32;98822.59;4331090;33;34412;-95
2023/05/23 03:00:10;;;;;;;14.10;5.53;;;;;;;18.48;59.37;98821.69;4330309;33;33651;-91
2023/05/23 03:02:38;;;;;;;9.20;5.43;;;;;;;18.38;59.93;98830.72;4317509;33;33695;-94
2023/05/23 03:05:06;;;;;;;8.98;5.28;;;;;;;18.37;60.08;98826.38;4330652;33;34560;-92
2023/05/23 03:07:35;;;;;;;7.95;5.30;;;;;;;18.46;59.94;98828.75;4316766;33;34863;-94
2023/05/23 03:10:03;;;;;;;7.40;5.30;;;;;;;18.59;58.94;98829.31;4305061;33;32565;-92
2023/05/23 03:12:31;;;;;;;10.35;6.50;;;;;;;18.51;59.09;98828.63;4305350;33;33482;-93
2023/05/23 03:14:58;;;;;;;8.00;5.40;;;;;;;18.43;59.60;98827.97;4316470;33;32808;-91
2023/05/23 03:17:26;;;;;;;7.12;4.80;;;;;;;18.44;59.65;98830.53;4330629;33;33918;-92
2023/05/23 03:19:56;;;;;;;9.38;5.03;;;;;;;18.58;59.10;98830.22;4330058;33;34157;-92
2023/05/23 03:22:23;;;;;;;8.73;4.87;;;;;;;18.53;59.01;98833.88;4330079;33;34882;-94
2023/05/23 03:24:51;;;;;;;8.15;4.60;;;;;;;18.60;58.96;98830.16;4329532;33;34170;-91
2023/05/23 03:27:19;;;;;;;12.73;5.60;;;;;;;18.61;59.04;98837.16;4330455;33;33599;-90
2023/05/23 03:29:47;;;;;;;8.95;5.20;;;;;;;18.43;59.73;98843.72;4302214;33;33608;-92
2023/05/23 03:32:14;;;;;;;8.63;4.80;;;;;;;18.56;59.42;98833.75;4316006;33;35286;-91
2023/05/23 03:34:42;;;;;;;10.25;5.80;;;;;;;18.48;59.41;98832.19;4315053;33;33951;-92
2023/05/23 03:37:10;;;;;;;10.05;5.20;;;;;;;18.59;59.11;98818.81;4330642;33;34333;-93
2023/05/23 03:39:38;;;;;;;9.52;5.57;;;;;;;18.61;58.90;98822.28;4316832;33;32663;-91
2023/05/23 03:42:06;;;;;;;8.85;5.30;;;;;;;18.64;58.71;98827.44;4330354;33;33859;-93
2023/05/23 03:44:34;;;;;;;9.57;5.32;;;;;;;18.77;58.60;98821.91;4316030;33;34154;-93
2023/05/23 03:47:02;;;;;;;10.68;5.78;;;;;;;18.59;59.35;98821.44;4302230;33;33360;-91
2023/05/23 03:49:30;;;;;;;8.90;5.37;;;;;;;18.46;60.11;98827.91;4323292;33;33459;-92
2023/05/23 03:51:58;;;;;;;7.43;5.35;;;;;;;18.56;60.23;98825.91;4304341;33;33040;-93
2023/05/23 03:54:25;;;;;;;12.02;5.75;;;;;;;18.70;59.80;98826.41;4329882;33;33638;-93
2023/05/23 03:56:53;;;;;;;8.32;5.20;;;;;;;18.76;59.57;98828.94;4329984;33;35061;-92
2023/05/23 03:59:21;;;;;;;10.05;5.97;;;;;;;18.64;59.64;98826.59;4316146;33;33683;-94
2023/05/23 04:01:48;;;;;;;9.85;5.25;;;;;;;18.74;59.62;98829.84;4304706;33;33572;-93
2023/05/23 04:04:17;;;;;;;8.77;5.22;;;;;;;18.78;59.79;98832.34;4329287;33;34147;-93
2023/05/23 04:06:44;;;;;;;7.55;4.80;;;;;;;18.87;59.95;98834.75;4329743;33;34349;-92
2023/05/23 04:09:13;;;;;;;9.07;5.32;;;;;;;18.91;59.82;98833.78;4329859;33;34048;-91
2023/05/23 04:11:43;;;;;;;9.48;5.68;;;;;;;19.02;59.65;98832.63;4316549;33;33958;-93
2023/05/23 04:14:11;;;;;;;9.95;5.75;;;;;;;19.33;58.35;98827.41;4329472;33;33736;-93
2023/05/23 04:16:40;;;;;;;12.27;5.20;;;;;;;19.22;58.95;98829.47;4305057;33;34099;-91
2023/05/23 04:19:08;;;;;;;8.30;5.30;;;;;;;19.32;59.06;98834.44;4322731;33;33504;-92
2023/05/23 04:21:36;;;;;;;13.00;5.43;;;;;;;19.18;59.48;98828.69;4325890;33;34857;-92
2023/05/23 04:24:04;;;;;;;10.57;6.12;;;;;;;19.26;59.74;98831.97;4329686;33;35156;-90
2023/05/23 04:26:35;;;;;;;11.57;5.45;;;;;;;19.63;59.39;98829.19;4329137;33;34029;-92
2023/05/23 04:29:04;;;;;;;10.38;5.28;;;;;;;19.76;59.48;98826.19;4316040;33;33310;-91
2023/05/23 04:31:33;;;;;;;10.32;5.25;;;;;;;20.25;57.99;98825.53;4330283;33;34843;-92
2023/05/23 04:34:01;;;;;;;10.50;5.12;;;;;;;20.41;57.96;98818.84;4331276;33;34210;-93
2023/05/23 04:36:29;;;;;;;9.10;4.85;;;;;;;20.87;56.40;98827.00;4331513;33;34181;-92
2023/05/23 04:38:56;;;;;;;9.38;5.90;;;;;;;21.33;55.37;98828.94;4331337;33;33356;-92
2023/05/23 04:41:24;;;;;;;8.75;5.20;;;;;;;21.21;55.83;98821.41;4317518;33;33455;-91
2023/05/23 04:43:53;;;;;;;8.30;4.53;;;;;;;21.78;54.73;98821.97;4332032;33;34092;-92
2023/05/23 04:46:25;;;;;;;9.25;5.03;;;;;;;22.07;54.11;98823.50;4331928;33;34325;-92
2023/05/23 04:48:53;;;;;;;8.18;5.05;;;;;;;22.20;53.74;98822.13;4336532;33;33378;-94
2023/05/23 04:51:21;;;;;;;8.95;4.30;;;;;;;21.95;54.39;98821.34;4331795;33;33468;-94
2023/05/23 04:53:51;;;;;;;9.90;5.22;;;;;;;22.29;53.77;98821.75;4331281;33;34019;-91
2023/05/23 04:56:19;;;;;;;9.32;5.28;;;;;;;22.47;53.05;98819.28;4331544;33;33851;-92
2023/05/23 04:58:48;;;;;;;7.87;4.68;;;;;;;22.73;52.74;98826.09;4330716;33;34578;-90
2023/05/23 05:01:16;;;;;;;8.05;4.53;;;;;;;23.04;52.21;98823.06;4315792;33;32765;-95
2023/05/23 05:03:44;;;;;;;8.07;4.85;;;;;;;23.49;51.10;98816.66;4330630;33;34424;-92
2023/05/23 05:06:13;;;;;;;9.15;4.97;;;;;;;23.63;50.96;98816.88;4331759;33;34158;-95
2023/05/23 05:08:41;;;;;;;9.30;5.40;;;;;;;23.56;50.88;98818.06;4327815;33;34494;-92
2023/05/23 05:11:09;;;;;;;8.65;4.87;;;;;;;23.39;50.40;98820.66;4331399;33;33948;-92
2023/05/23 05:13:37;;;;;;;11.50;5.18;;;;;;;24.04;50.13;98820.25;4331453;33;34245;-92
2023/05/23 05:16:05;;;;;;;12.63;5.62;;;;;;;23.67;50.64;98814.97;4318281;33;34563;-92
2023/05/23 05:18:35;;;;;;;13.60;5.70;;;;;;;23.87;49.49;98814.91;4317152;33;32953;-91
2023/05/23 05:21:03;;;;;;;10.93;5.30;;;;;;;23.66;50.32;98823.81;4331356;33;34600;-92
2023/05/23 05:23:32;;;;;;;10.43;5.07;;;;;;;23.78;50.10;98817.97;4331023;33;34138;-92
2023/05/23 05:25:59;;;;;;;15.13;5.62;;;;;;;23.19;50.56;98819.75;4317695;33;33991;-89
2023/05/23 05:28:27;;;;;;;10.05;5.00;;;;;;;23.29;50.12;98818.41;4331859;33;33315;-90
2023/05/23 05:30:55;;;;;;;9.45;4.93;;;;;;;23.54;49.03;98810.22;4305306;33;33766;-89
2023/05/23 05:33:23;;;;;;;8.88;5.18;;;;;;;23.59;49.14;98815.28;4317918;33;34023;-88
2023/05/23 05:35:52;;;;;;;9.32;5.30;;;;;;;23.91;49.15;98818.28;4317226;33;34220;-90
2023/05/23 05:38:19;;;;;;;9.90;4.80;;;;;;;23.99;48.50;98814.34;4329828;33;34355;-90
2023/05/23 05:40:47;;;;;;;8.82;4.60;;;;;;;23.90;47.63;98819.19;4331065;33;34700;-91
2023/05/23 05:43:15;;;;;;;7.90;5.05;;;;;;;23.94;47.30;98815.47;4331270;33;34051;-92
2023/05/23 05:45:43;;;;;;;10.80;4.68;;;;;;;23.51;47.78;98814.78;4329647;33;34875;-91
2023/05/23 05:48:10;;;;;;;9.38;4.78;;;;;;;23.43;47.34;98817.78;4317688;33;33562;-90
2023/05/23 05:50:38;;;;;;;7.95;4.62;;;;;;;23.26;48.55;98818.56;4330778;33;34715;-91
2023/05/23 05:53:07;;;;;;;10.52;4.87;;;;;;;23.12;49.16;98828.88;4330798;33;35031;-91
2023/05/23 05:55:34;;;;;;;10.60;4.35;;;;;;;23.04;48.83;98825.72;4305936;33;32867;-93
2023/05/23 05:58:03;;;;;;;8.27;4.70;;;;;;;23.41;47.21;98817.00;4330630;33;34621;-91
2023/05/23 06:00:33;;;;;;;8.15;4.37;;;;;;;23.41;47.04;98822.31;4317564;33;33751;-92
2023/05/23 06:03:01;;;;;;;9.80;4.35;;;;;;;22.77;48.74;98822.44;4305598;33;33782;-94
2023/05/23 06:05:29;;;;;;;8.10;4.68;;;;;;;22.52;50.32;98817.31;4318014;33;35383;-92
2023/05/23 06:07:57;;;;;;;9.05;4.05;;;;;;;23.18;47.90;98819.78;4318028;33;32886;-92
2023/05/23 06:10:25;;;;;;;7.00;4.07;;;;;;;23.62;46.78;98814.31;4317820;33;34083;-92
2023/05/23 06:12:52;;;;;;;9.82;4.47;;;;;;;23.92;46.90;98815.56;4331081;33;34042;-90
2023/05/23 06:15:20;;;;;;;15.43;4.68;;;;;;;23.76;47.01;98815.41;4331245;33;33795;-90
2023/05/23 06:17:48;;;;;;;8.65;4.72;;;;;;;24.08;46.62;98814.81;4331132;33;34436;-92
2023/05/23 06:20:15;;;;;;;10.73;5.37;;;;;;;24.14;46.36;98811.87;4330765;33;33192;-88
2023/05/23 06:22:43;;;;;;;8.10;4.18;;;;;;;23.84;46.44;98817.72;4330090;33;33679;-90
2023/05/23 06:25:15;;;;;;;11.60;4.60;;;;;;;24.16;45.96;98807.34;4330560;33;33941;-89
2023/05/23 06:27:43;;;;;;;9.02;4.18;;;;;;;24.28;45.69;98814.72;4330816;33;33658;-89
2023/05/23 06:30:11;;;;;;;10.82;4.80;;;;;;;24.50;45.57;98818.06;4330741;33;33972;-88
2023/05/23 06:32:40;;;;;;;10.15;4.53;;;;;;;24.69;44.75;98815.34;4322248;33;34198;-87
2023/05/23 06:35:08;;;;;;;10.70;5.82;;;;;;;24.92;44.42;98814.16;4327915;33;33996;-86
2023/05/23 06:37:36;;;;;;;12.88;5.55;;;;;;;24.71;44.88;98820.59;4330370;33;33184;-91
2023/05/23 06:40:04;;;;;;;8.35;4.43;;;;;;;24.77;45.87;98812.28;4330748;33;33666;-88
2023/05/23 06:42:31;;;;;;;9.05;4.60;;;;;;;24.62;45.54;98816.56;4330564;33;33756;-91
2023/05/23 06:45:01;;;;;;;12.05;4.80;;;;;;;24.67;45.57;98811.91;4319690;33;34208;-90
2023/05/23 06:47:31;;;;;;;9.10;4.60;;;;;;;24.50;46.79;98814.53;4331297;33;33437;-92
2023/05/23 06:49:58;;;;;;;7.85;4.87;;;;;;;24.89;46.13;98811.69;4330754;33;33895;-90
2023/05/23 06:52:26;;;;;;;10.63;5.03;;;;;;;24.78;46.42;98816.69;4330773;33;35204;-92
2023/05/23 06:54:54;;;;;;;9.20;4.97;;;;;;;24.57;47.18;98812.47;4317363;33;33779;-89
2023/05/23 06:57:22;;;;;;;10.82;5.10;;;;;;;25.05;45.58;98809.09;4331196;33;33398;-91
2023/05/23 06:59:50;;;;;;;8.45;4.50;;;;;;;25.27;46.61;98810.63;4316622;33;33726;-91
2023/05/23 07:02:18;;;;;;;9.77;4.87;;;;;;;25.14;46.81;98813.94;4331123;33;33349;-92
2023/05/23 07:04:45;;;;;;;11.88;5.00;;;;;;;25.43;45.29;98808.91;4330955;33;32734;-92
2023/05/23 07:07:14;;;;;;;8.70;4.55;;;;;;;24.91;46.65;98814.25;4317452;33;33310;-91
2023/05/23 07:09:43;;;;;;;10.48;4.90;;;;;;;25.43;46.12;98803.59;4330738;33;33740;-90
2023/05/23 07:12:10;;;;;;;12.07;4.70;;;;;;;26.07;45.26;98800.09;4329607;33;35154;-92
2023/05/23 07:14:39;;;;;;;10.13;4.43;;;;;;;26.03;43.99;98798.56;4330602;33;35037;-89
2023/05/23 07:17:06;;;;;;;7.32;4.47;;;;;;;25.61;45.00;98801.72;4316557;33;32929;-93
2023/05/23 07:19:34;;;;;;;9.90;4.40;;;;;;;26.20;45.39;98795.78;4330702;33;34108;-95
2023/05/23 07:22:02;;;;;;;11.93;5.95;;;;;;;26.53;44.50;98789.50;4316942;33;34942;-94
2023/05/23 07:24:30;;;;;;;9.85;5.07;;;;;;;26.30;43.54;98785.50;4330212;33;34493;-92
2023/05/23 07:26:58;;;;;;;9.35;4.87;;;;;;;25.65;43.92;98793.53;4330631;33;32992;-94
2023/05/23 07:29:25;;;;;;;15.45;5.25;;;;;;;25.24;45.17;98787.81;4330712;33;34427;-94
2023/05/23 07:31:53;;;;;;;10.23;4.87;;;;;;;25.64;44.68;98790.94;4330454;33;34194;-89
2023/05/23 07:34:21;;;;;;;10.40;5.28;;;;;;;26.02;44.46;98793.31;4330685;33;34259;-93
2023/05/23 07:36:49;;;;;;;13.57;5.20;;;;;;;25.14;44.97;98803.34;4316775;33;34503;-90
2023/05/23 07:39:23;;;;;;;10.65;5.70;;;;;;;25.76;44.49;98794.72;4330479;33;33743;-94
2023/05/23 07:41:51;;;;;;;11.90;5.25;;;;;;;25.99;44.08;98796.13;4330529;33;33921;-96
2023/05/23 07:44:19;;;;;;;10.40;5.43;;;;;;;26.35;43.68;98793.19;4330460;33;34292;-95
2023/05/23 07:46:51;;;;;;;11.68;5.30;;;;;;;25.66;44.66;98795.25;4330275;33;34174;-93
2023/05/23 07:49:19;;;;;;;12.27;5.43;;;;;;;26.04;44.72;98794.94;4316937;33;34700;-92
2023/05/23 07:51:47;;;;;;;13.57;6.40;;;;;;;26.37;43.49;98786.84;4331255;33;35485;-90
2023/05/23 07:54:14;;;;;;;11.27;5.40;;;;;;;26.63;42.87;98790.69;4330463;33;35151;-95
2023/05/23 07:56:43;;;;;;;16.80;6.25;;;;;;;26.11;44.91;98783.03;4330551;33;33397;-92
2023/05/23 07:59:12;;;;;;;11.23;5.72;;;;;;;26.49;42.60;98781.81;4330175;33;33541;-96
2023/05/23 08:01:41;;;;;;;11.85;5.32;;;;;;;26.41;43.99;98783.06;4316949;33;33556;-90
2023/05/23 08:04:09;;;;;;;11.25;6.10;;;;;;;26.65;43.31;98788.78;4329969;33;34491;-90
2023/05/23 08:06:37;;;;;;;13.48;6.50;;;;;;;26.55;43.17;98792.91;4330418;33;33341;-94
2023/05/23 08:09:19;;;;;;;12.23;5.22;;;;;;;26.97;42.68;98793.97;4332102;33;33697;-95
2023/05/23 08:11:47;;;;;;;10.77;6.07;;;;;;;26.85;42.57;98787.56;4332069;33;33804;-93
2023/05/23 08:14:15;;;;;;;12.15;5.37;;;;;;;27.11;41.35;98783.38;4331909;33;34081;-94
2023/05/23 08:16:43;;;;;;;12.75;6.37;;;;;;;26.65;42.30;98783.44;4331939;33;34296;-90
2023/05/23 08:19:11;;;;;;;15.13;7.53;;;;;;;26.82;41.65;98779.81;4331753;33;34824;-93
2023/05/23 08:21:39;;;;;;;10.50;6.37;;;;;;;26.71;42.73;98786.69;4332043;33;35156;-92
2023/05/23 08:24:07;;;;;;;12.07;6.07;;;;;;;26.94;42.51;98786.19;4331834;33;34290;-95
2023/05/23 08:26:35;;;;;;;12.63;6.03;;;;;;;27.15;41.08;98786.72;4318637;33;33805;-91
2023/05/23 08:29:02;;;;;;;12.77;6.20;;;;;;;27.41;41.49;98783.28;4326235;33;34996;-91
2023/05/23 08:31:30;;;;;;;13.18;6.62;;;;;;;27.13;41.39;98785.97;4317374;33;34184;-93
2023/05/23 08:33:59;;;;;;;10.80;6.22;;;;;;;27.04;41.02;98783.81;4316848;33;34332;-89
2023/05/23 08:36:28;;;;;;;11.15;6.22;;;;;;;27.52;41.06;98777.31;4317462;33;33404;-91
2023/05/23 08:38:56;;;;;;;13.20;6.45;;;;;;;27.25;40.16;98785.19;4317184;33;34907;-93
2023/05/23 08:41:24;;;;;;;10.63;5.85;;;;;;;27.73;41.02;98780.44;4317171;33;34901;-88
2023/05/23 08:43:51;;;;;;;11.43;6.80;;;;;;;27.70;40.81;98787.75;4317300;33;34949;-89
2023/05/23 08:46:21;;;;;;;11.45;6.32;;;;;;;27.61;39.78;98790.03;4316031;33;33814;-88
2023/05/23 08:48:53;;;;;;;9.52;6.22;;;;;;;28.05;39.52;98781.03;4316704;33;34919;-93
2023/05/23 08:51:24;;;;;;;15.63;5.70;;;;;;;27.85;40.08;98781.47;4317186;33;34802;-90
2023/05/23 08:53:52;;;;;;;11.27;6.28;;;;;;;28.10;39.70;98789.56;4317256;33;34692;-90
2023/05/23 08:56:23;;;;;;;13.32;6.18;;;;;;;27.62;40.87;98789.09;4317576;33;33417;-94
2023/05/23 08:58:52;;;;;;;9.02;5.70;;;;;;;27.75;40.05;98785.69;4319494;33;33968;-92
2023/05/23 09:01:21;;;;;;;14.40;5.72;;;;;;;27.75;38.47;98780.34;4318429;33;35280;-89
2023/05/23 09:03:50;;;;;;;10.63;5.05;;;;;;;27.95;38.21;98779.06;4318132;33;34548;-90
2023/05/23 09:06:20;;;;;;;9.32;5.62;;;;;;;27.88;39.18;98783.94;4331906;33;33599;-94
2023/05/23 09:08:48;;;;;;;8.80;5.05;;;;;;;28.54;38.80;98780.50;4331795;33;34622;-93
2023/05/23 09:11:16;;;;;;;12.77;5.32;;;;;;;28.59;38.76;98786.38;4331860;33;34006;-91
2023/05/23 09:13:44;;;;;;;8.23;4.70;;;;;;;28.36;37.93;98790.53;4331788;33;34137;-90
2023/05/23 09:16:16;;;;;;;12.18;4.95;;;;;;;28.21;37.65;98780.03;4331558;33;34355;-88
2023/05/23 09:18:44;;;;;;;10.27;5.10;;;;;;;28.14;37.54;98784.91;4331576;33;33576;-95
2023/05/23 09:21:12;;;;;;;10.43;5.18;;;;;;;28.19;38.28;98788.13;4331741;33;34943;-91
2023/05/23 09:23:42;;;;;;;10.77;5.28;;;;;;;28.20;37.77;98789.00;4323170;33;34088;-93
2023/05/23 09:26:12;;;;;;;8.93;4.57;;;;;;;28.61;37.12;98781.78;4317163;33;31901;-93
2023/05/23 09:28:42;;;;;;;8.82;4.57;;;;;;;29.33;36.20;98776.00;4316873;33;33764;-92
2023/05/23 09:31:09;;;;;;;8.73;4.93;;;;;;;28.62;37.11;98780.81;4316889;33;34706;-92
2023/05/23 09:33:51;;;;;;;10.45;5.43;;;;;;;29.07;35.75;98788.50;4316576;33;34307;-92
2023/05/23 09:36:19;;;;;;;9.48;6.22;;;;;;;28.95;37.42;98784.84;4316854;33;34719;-90
2023/05/23 09:38:47;;;;;;;10.30;6.10;;;;;;;28.40;38.98;98785.88;4316782;33;33601;-91
2023/05/23 09:41:15;;;;;;;10.45;6.60;;;;;;;28.98;37.59;98781.13;4315471;33;34060;-93
2023/05/23 09:43:53;;;;;;;9.23;5.93;;;;;;;28.80;39.30;98778.72;4316718;33;33784;-94
2023/05/23 09:46:21;;;;;;;9.85;6.03;;;;;;;28.87;38.45;98776.50;4303417;33;34359;-92
2023/05/23 09:48:50;;;;;;;10.35;6.35;;;;;;;28.96;37.99;98781.19;4316601;33;34682;-91
2023/05/23 09:51:22;;;;;;;10.95;6.50;;;;;;;28.80;38.40;98772.56;4316838;33;33875;-89
2023/05/23 09:53:51;;;;;;;13.52;7.03;;;;;;;28.59;40.14;98777.50;4307669;33;33980;-93
2023/05/23 09:56:18;;;;;;;9.55;5.57;;;;;;;28.78;38.83;98780.63;4328283;33;34265;-92
2023/05/23 09:58:47;;;;;;;9.27;5.70;;;;;;;28.99;37.83;98774.84;4316420;33;34726;-93
2023/05/23 10:01:15;;;;;;;14.05;5.85;;;;;;;28.61;38.40;98779.13;4316383;33;35082;-94
2023/05/23 10:03:50;;;;;;;11.05;5.97;;;;;;;28.92;34.53;98774.37;4316885;33;33978;-92
2023/05/23 10:06:30;;;;;;;9.90;5.30;;;;;;;28.90;37.76;98778.94;4315061;33;34022;-95
2023/05/23 10:09:03;;;;;;;9.07;5.30;;;;;;;28.83;38.21;98777.69;4288932;33;34027;-94
2023/05/23 10:11:33;;;;;;;12.73;6.00;;;;;;;28.72;37.48;98766.87;4300704;33;35088;-93
2023/05/23 10:14:04;;;;;;;11.65;5.22;;;;;;;29.25;36.21;98767.69;4301693;33;34896;-94
2023/05/23 10:16:55;;;;;;;10.75;4.53;;;;;;;29.38;36.20;98767.66;4302030;33;34660;-94
2023/05/23 10:19:25;;;;;;;10.48;5.47;;;;;;;29.79;34.95;98759.37;4288731;33;33877;-94
2023/05/23 10:21:58;;;;;;;7.87;5.05;;;;;;;29.59;35.34;98768.84;4309714;33;35011;-93
2023/05/23 10:24:26;;;;;;;8.40;4.87;;;;;;;29.75;35.21;98753.41;4316351;33;34304;-94
2023/05/23 10:26:54;;;;;;;9.15;5.00;;;;;;;29.46;36.25;98759.97;4316409;33;33562;-93
2023/05/23 10:29:22;;;;;;;8.32;5.07;;;;;;;28.61;37.42;98754.28;4304218;33;33992;-92
2023/05/23 10:31:51;;;;;;;8.52;4.95;;;;;;;28.55;37.72;98757.34;4330746;33;34913;-89
2023/05/23 10:34:24;;;;;;;12.82;5.43;;;;;;;28.90;37.02;98746.91;4331222;33;34354;-92
2023/05/23 10:36:56;;;;;;;9.73;5.03;;;;;;;28.95;37.50;98750.16;4317910;33;34403;-89
2023/05/23 10:39:40;;;;;;;7.80;5.12;;;;;;;29.10;37.68;98745.59;4330948;33;33720;-94
2023/05/23 10:42:16;;;;;;;11.18;4.82;;;;;;;29.18;36.92;98745.06;4317882;33;34097;-95
2023/05/23 10:44:44;;;;;;;9.65;4.90;;;;;;;29.53;35.58;98746.06;4317799;33;34020;-91
2023/05/23 10:47:11;;;;;;;10.85;4.78;;;;;;;28.95;33.83;98744.81;4331092;33;34087;-94
2023/05/23 10:49:44;;;;;;;9.02;5.00;;;;;;;28.78;35.39;98747.78;4330932;33;33780;-93
2023/05/23 10:52:13;;;;;;;7.78;5.47;;;;;;;28.51;37.93;98743.34;4330951;33;34112;-95
2023/05/23 10:54:50;;;;;;;12.60;6.15;;;;;;;29.17;38.52;98736.19;4317799;33;34005;-90
2023/05/23 10:57:20;;;;;;;7.07;5.03;;;;;;;29.18;38.04;98734.38;4330773;33;33875;-96
2023/05/23 10:59:53;;;;;;;8.95;5.25;;;;;;;29.04;36.90;98732.66;4330740;33;34270;-93
2023/05/23 11:02:28;;;;;;;10.60;5.68;;;;;;;29.28;38.23;98735.41;4331022;33;33821;-88
2023/05/23 11:05:14;;;;;;;10.65;5.07;;;;;;;29.43;36.83;98726.31;4330880;33;34825;-91
2023/05/23 11:07:42;;;;;;;9.93;5.00;;;;;;;29.57;38.17;98728.87;4330638;33;33851;-93
2023/05/23 11:10:10;;;;;;;10.20;5.00;;;;;;;29.40;33.79;98712.31;4330743;33;33983;-93
2023/05/23 11:12:43;;;;;;;7.03;4.70;;;;;;;28.99;38.74;98724.97;4330740;33;33849;-94
2023/05/23 11:15:17;;;;;;;11.35;5.50;;;;;;;29.67;37.16;98720.22;4330571;33;34249;-94
2023/05/23 11:17:56;;;;;;;9.95;4.60;;;;;;;29.59;36.12;98712.75;4330739;33;33289;-89
2023/05/23 11:20:26;;;;;;;7.80;4.50;;;;;;;30.09;38.18;98715.34;4318239;33;34040;-92
2023/05/23 11:22:59;;;;;;;9.55;4.03;;;;;;;30.35;36.41;98708.06;4317375;33;34225;-93
2023/05/23 11:25:48;;;;;;;7.95;4.22;;;;;;;29.94;32.49;98702.12;4317540;33;34036;-92
2023/05/23 11:28:18;;;;;;;10.50;4.00;;;;;;;29.78;32.39;98701.56;4330810;33;34124;-92
2023/05/23 11:30:49;;;;;;;6.80;3.83;;;;;;;30.13;31.58;98703.44;4330048;33;34111;-91
2023/05/23 11:33:17;;;;;;;10.07;3.65;;;;;;;30.41;31.79;98695.06;4330510;33;34204;-95
2023/05/23 11:35:46;;;;;;;6.75;4.18;;;;;;;30.42;29.40;98690.56;4330582;33;34281;-90
2023/05/23 11:38:17;;;;;;;8.80;4.53;;;;;;;30.29;31.26;98696.84;4317167;33;33532;-88